createdAt,value
2023-04-15T00:00:38.587Z,950.38
2023-04-15T00:01:38.591Z,950.40
2023-04-15T00:02:38.709Z,950.39
2023-04-15T00:03:38.769Z,950.38
2023-04-15T00:04:38.473Z,950.36
2023-04-15T00:05:38.459Z,950.40
2023-04-15T00:06:38.411Z,950.38
2023-04-15T00:07:38.373Z,950.40
2023-04-15T00:08:38.340Z,950.39
2023-04-15T00:09:38.311Z,950.39
2023-04-15T00:10:38.280Z,950.38
2023-04-15T00:11:38.260Z,950.37
2023-04-15T00:12:38.221Z,950.41
2023-04-15T00:13:38.186Z,950.39
2023-04-15T00:14:38.156Z,950.35
2023-04-15T00:15:38.126Z,950.35
2023-04-15T00:16:38.151Z,950.35
2023-04-15T00:17:38.086Z,950.36
2023-04-15T00:18:38.033Z,950.35
2023-04-15T00:19:38.002Z,950.37
2023-04-15T00:20:37.971Z,950.37
2023-04-15T00:21:37.970Z,950.34
2023-04-15T00:22:37.910Z,950.39
2023-04-15T00:23:37.880Z,950.37
2023-04-15T00:24:37.848Z,950.35
2023-04-15T00:25:37.819Z,950.36
2023-04-15T00:26:37.786Z,950.31
2023-04-15T00:27:37.757Z,950.33
2023-04-15T00:28:37.720Z,950.32
2023-04-15T00:29:37.694Z,950.29
2023-04-15T00:30:37.703Z,950.28
2023-04-15T00:31:37.644Z,950.27
2023-04-15T00:32:37.652Z,950.29
2023-04-15T00:33:37.569Z,950.24
2023-04-15T00:34:37.538Z,950.22
2023-04-15T00:35:37.519Z,950.23
2023-04-15T00:36:37.476Z,950.22
2023-04-15T00:37:37.470Z,950.18
2023-04-15T00:38:37.415Z,950.24
2023-04-15T00:39:37.383Z,950.23
2023-04-15T00:40:37.351Z,950.19
2023-04-15T00:41:37.321Z,950.21
2023-04-15T00:42:37.292Z,950.20
2023-04-15T00:43:37.259Z,950.17
2023-04-15T00:44:37.225Z,950.16
2023-04-15T00:45:37.226Z,950.15
2023-04-15T00:46:37.166Z,950.10
2023-04-15T00:47:37.158Z,950.13
2023-04-15T00:48:37.102Z,950.14
2023-04-15T00:49:37.074Z,950.14
2023-04-15T00:50:37.044Z,950.15
2023-04-15T00:51:37.018Z,950.17
2023-04-15T00:52:36.980Z,950.16
2023-04-15T00:53:36.971Z,950.20
2023-04-15T00:54:36.915Z,950.19
2023-04-15T00:55:36.885Z,950.23
2023-04-15T00:56:36.850Z,950.20
2023-04-15T00:57:36.826Z,950.22
2023-04-15T00:58:36.790Z,950.22
2023-04-15T00:59:36.760Z,950.24
2023-04-15T01:00:36.735Z,950.21
2023-04-15T01:01:36.744Z,950.25
2023-04-15T01:02:37.066Z,950.24
2023-04-15T01:03:36.770Z,950.21
2023-04-15T01:04:36.654Z,950.23
2023-04-15T01:05:36.575Z,950.24
2023-04-15T01:06:36.543Z,950.26
2023-04-15T01:07:36.514Z,950.25
2023-04-15T01:08:36.476Z,950.20
2023-04-15T01:09:36.485Z,950.22
2023-04-15T01:10:36.417Z,950.18
2023-04-15T01:11:36.412Z,950.21
2023-04-15T01:12:36.360Z,950.20
2023-04-15T01:13:36.325Z,950.22
2023-04-15T01:14:36.302Z,950.25
2023-04-15T01:15:36.263Z,950.22
2023-04-15T01:16:36.284Z,950.20
2023-04-15T01:17:36.210Z,950.26
2023-04-15T01:18:36.172Z,950.28
2023-04-15T01:19:36.152Z,950.27
2023-04-15T01:20:36.107Z,950.28
2023-04-15T01:21:36.075Z,950.29
2023-04-15T01:22:36.047Z,950.33
2023-04-15T01:23:36.017Z,950.30
2023-04-15T01:24:35.998Z,950.33
2023-04-15T01:25:35.976Z,950.34
2023-04-15T01:26:35.925Z,950.32
2023-04-15T01:27:35.896Z,950.35
2023-04-15T01:28:35.862Z,950.33
2023-04-15T01:29:35.836Z,950.36
2023-04-15T01:30:35.807Z,950.32
2023-04-15T01:31:35.802Z,950.34
2023-04-15T01:32:35.806Z,950.31
2023-04-15T01:33:35.717Z,950.34
2023-04-15T01:34:36.026Z,950.35
2023-04-15T01:35:35.650Z,950.33
2023-04-15T01:36:35.612Z,950.34
2023-04-15T01:37:35.585Z,950.33
2023-04-15T01:38:35.553Z,950.34
2023-04-15T01:39:35.531Z,950.36
2023-04-15T01:40:35.493Z,950.36
2023-04-15T01:41:35.480Z,950.36
2023-04-15T01:42:35.443Z,950.40
2023-04-15T01:43:35.410Z,950.35
2023-04-15T01:44:35.371Z,950.38
2023-04-15T01:45:35.354Z,950.37
2023-04-15T01:46:35.318Z,950.34
2023-04-15T01:47:35.346Z,950.37
2023-04-15T01:48:35.251Z,950.32
2023-04-15T01:49:35.218Z,950.32
2023-04-15T01:50:35.191Z,950.33
2023-04-15T01:51:35.157Z,950.37
2023-04-15T01:52:35.148Z,950.37
2023-04-15T01:53:35.104Z,950.35
2023-04-15T01:54:35.069Z,950.37
2023-04-15T01:55:35.042Z,950.39
2023-04-15T01:56:35.010Z,950.40
2023-04-15T01:57:35.008Z,950.39
2023-04-15T01:58:34.952Z,950.41
2023-04-15T01:59:34.917Z,950.40
2023-04-15T02:00:34.903Z,950.42
2023-04-15T02:01:34.855Z,950.41
2023-04-15T02:02:34.975Z,950.36
2023-04-15T02:03:34.850Z,950.37
2023-04-15T02:04:34.763Z,950.35
2023-04-15T02:05:34.735Z,950.34
2023-04-15T02:06:34.702Z,950.34
2023-04-15T02:07:34.673Z,950.35
2023-04-15T02:08:34.645Z,950.34
2023-04-15T02:09:34.611Z,950.33
2023-04-15T02:10:34.582Z,950.34
2023-04-15T02:11:34.551Z,950.34
2023-04-15T02:12:34.520Z,950.35
2023-04-15T02:13:34.517Z,950.35
2023-04-15T02:14:34.462Z,950.35
2023-04-15T02:15:34.434Z,950.32
2023-04-15T02:16:34.443Z,950.36
2023-04-15T02:17:34.382Z,950.36
2023-04-15T02:18:34.341Z,950.35
2023-04-15T02:19:34.305Z,950.38
2023-04-15T02:20:34.279Z,950.39
2023-04-15T02:21:34.252Z,950.36
2023-04-15T02:22:34.217Z,950.38
2023-04-15T02:23:34.187Z,950.37
2023-04-15T02:24:34.157Z,950.38
2023-04-15T02:25:34.128Z,950.37
2023-04-15T02:26:34.113Z,950.39
2023-04-15T02:27:34.066Z,950.37
2023-04-15T02:28:34.040Z,950.38
2023-04-15T02:29:34.025Z,950.38
2023-04-15T02:30:33.982Z,950.40
2023-04-15T02:31:34.089Z,950.36
2023-04-15T02:32:33.970Z,950.37
2023-04-15T02:33:38.437Z,950.34
2023-04-15T02:34:33.861Z,950.34
2023-04-15T02:35:33.827Z,950.34
2023-04-15T02:36:33.796Z,950.35
2023-04-15T02:37:33.764Z,950.34
2023-04-15T02:38:33.749Z,950.34
2023-04-15T02:39:33.705Z,950.33
2023-04-15T02:40:33.675Z,950.37
2023-04-15T02:41:33.649Z,950.39
2023-04-15T02:42:33.615Z,950.40
2023-04-15T02:43:33.599Z,950.38
2023-04-15T02:44:33.554Z,950.39
2023-04-15T02:45:33.545Z,950.42
2023-04-15T02:46:33.494Z,950.42
2023-04-15T02:47:33.500Z,950.41
2023-04-15T02:48:33.434Z,950.39
2023-04-15T02:49:33.402Z,950.39
2023-04-15T02:50:33.393Z,950.37
2023-04-15T02:51:33.342Z,950.34
2023-04-15T02:52:33.311Z,950.31
2023-04-15T02:53:33.280Z,950.35
2023-04-15T02:54:33.263Z,950.35
2023-04-15T02:55:33.220Z,950.33
2023-04-15T02:56:33.189Z,950.33
2023-04-15T02:57:33.158Z,950.34
2023-04-15T02:58:33.129Z,950.37
2023-04-15T02:59:33.097Z,950.38
2023-04-15T03:00:33.067Z,950.34
2023-04-15T03:01:33.074Z,950.40
2023-04-15T03:02:33.093Z,950.40
2023-04-15T03:03:33.065Z,950.42
2023-04-15T03:04:32.957Z,950.41
2023-04-15T03:05:32.914Z,950.43
2023-04-15T03:06:32.886Z,950.44
2023-04-15T03:07:32.856Z,950.41
2023-04-15T03:08:32.854Z,950.40
2023-04-15T03:09:32.799Z,950.40
2023-04-15T03:10:32.774Z,950.38
2023-04-15T03:11:33.645Z,950.35
2023-04-15T03:12:32.703Z,950.32
2023-04-15T03:13:32.674Z,950.34
2023-04-15T03:14:32.645Z,950.36
2023-04-15T03:15:32.629Z,950.35
2023-04-15T03:16:32.580Z,950.38
2023-04-15T03:17:32.587Z,950.31
2023-04-15T03:18:32.527Z,950.37
2023-04-15T03:19:32.492Z,950.36
2023-04-15T03:20:32.526Z,950.32
2023-04-15T03:21:32.435Z,950.35
2023-04-15T03:22:32.405Z,950.31
2023-04-15T03:23:32.378Z,950.35
2023-04-15T03:24:32.347Z,950.38
2023-04-15T03:25:32.316Z,950.36
2023-04-15T03:26:32.293Z,950.34
2023-04-15T03:27:32.253Z,950.38
2023-04-15T03:28:32.225Z,950.38
2023-04-15T03:29:32.192Z,950.34
2023-04-15T03:30:32.164Z,950.30
2023-04-15T03:31:32.192Z,950.30
2023-04-15T03:32:32.119Z,950.30
2023-04-15T03:33:32.089Z,950.30
2023-04-15T03:34:32.044Z,950.30
2023-04-15T03:35:32.014Z,950.27
2023-04-15T03:36:31.994Z,950.28
2023-04-15T03:37:31.956Z,950.29
2023-04-15T03:38:31.926Z,950.28
2023-04-15T03:39:31.898Z,950.27
2023-04-15T03:40:31.869Z,950.28
2023-04-15T03:41:31.832Z,950.27
2023-04-15T03:42:31.803Z,950.24
2023-04-15T03:43:31.773Z,950.24
2023-04-15T03:44:31.745Z,950.20
2023-04-15T03:45:31.713Z,950.22
2023-04-15T03:46:31.718Z,950.20
2023-04-15T03:47:31.683Z,950.22
2023-04-15T03:48:31.623Z,950.17
2023-04-15T03:49:31.614Z,950.19
2023-04-15T03:50:31.575Z,950.20
2023-04-15T03:51:31.534Z,950.20
2023-04-15T03:52:31.509Z,950.17
2023-04-15T03:53:31.490Z,950.22
2023-04-15T03:54:31.446Z,950.21
2023-04-15T03:55:31.412Z,950.19
2023-04-15T03:56:31.390Z,950.22
2023-04-15T03:57:31.363Z,950.22
2023-04-15T03:58:31.323Z,950.20
2023-04-15T03:59:31.302Z,950.24
2023-04-15T04:00:31.262Z,950.21
2023-04-15T04:01:31.235Z,950.24
2023-04-15T04:02:31.318Z,950.20
2023-04-15T04:03:31.282Z,950.24
2023-04-15T04:04:31.245Z,950.23
2023-04-15T04:05:31.129Z,950.26
2023-04-15T04:06:31.096Z,950.26
2023-04-15T04:07:31.052Z,950.27
2023-04-15T04:08:31.022Z,950.27
2023-04-15T04:09:30.990Z,950.26
2023-04-15T04:10:30.963Z,950.26
2023-04-15T04:11:30.930Z,950.26
2023-04-15T04:12:30.901Z,950.27
2023-04-15T04:13:30.871Z,950.26
2023-04-15T04:14:30.849Z,950.25
2023-04-15T04:15:30.817Z,950.27
2023-04-15T04:16:30.788Z,950.25
2023-04-15T04:17:30.813Z,950.27
2023-04-15T04:18:30.725Z,950.27
2023-04-15T04:19:30.692Z,950.30
2023-04-15T04:20:30.666Z,950.25
2023-04-15T04:21:30.652Z,950.29
2023-04-15T04:22:30.600Z,950.28
2023-04-15T04:23:30.572Z,950.30
2023-04-15T04:24:30.541Z,950.28
2023-04-15T04:25:30.511Z,950.31
2023-04-15T04:26:30.481Z,950.33
2023-04-15T04:27:30.450Z,950.33
2023-04-15T04:28:30.421Z,950.29
2023-04-15T04:29:30.387Z,950.34
2023-04-15T04:30:30.380Z,950.33
2023-04-15T04:31:30.344Z,950.36
2023-04-15T04:32:30.366Z,950.34
2023-04-15T04:33:30.272Z,950.35
2023-04-15T04:34:30.241Z,950.39
2023-04-15T04:35:30.207Z,950.38
2023-04-15T04:36:30.178Z,950.36
2023-04-15T04:37:30.168Z,950.38
2023-04-15T04:38:30.123Z,950.39
2023-04-15T04:39:30.091Z,950.39
2023-04-15T04:40:30.059Z,950.35
2023-04-15T04:41:30.029Z,950.40
2023-04-15T04:42:30.026Z,950.39
2023-04-15T04:43:29.968Z,950.39
2023-04-15T04:44:29.933Z,950.38
2023-04-15T04:45:29.927Z,950.34
2023-04-15T04:46:29.885Z,950.39
2023-04-15T04:47:29.980Z,950.33
2023-04-15T04:48:29.827Z,950.35
2023-04-15T04:49:29.786Z,950.36
2023-04-15T04:50:29.759Z,950.39
2023-04-15T04:51:29.732Z,950.36
2023-04-15T04:52:29.703Z,950.38
2023-04-15T04:53:29.685Z,950.36
2023-04-15T04:54:29.638Z,950.37
2023-04-15T04:55:29.611Z,950.38
2023-04-15T04:56:29.577Z,950.40
2023-04-15T04:57:29.543Z,950.37
2023-04-15T04:58:29.514Z,950.39
2023-04-15T04:59:29.491Z,950.36
2023-04-15T05:00:29.459Z,950.37
2023-04-15T05:01:29.475Z,950.42
2023-04-15T05:02:29.504Z,950.41
2023-04-15T05:03:29.514Z,950.36
2023-04-15T05:04:29.335Z,950.43
2023-04-15T05:05:29.307Z,950.38
2023-04-15T05:06:29.276Z,950.42
2023-04-15T05:07:29.244Z,950.45
2023-04-15T05:08:29.233Z,950.44
2023-04-15T05:09:29.207Z,950.43
2023-04-15T05:10:29.158Z,950.47
2023-04-15T05:11:29.127Z,950.47
2023-04-15T05:12:29.095Z,950.49
2023-04-15T05:13:29.067Z,950.49
2023-04-15T05:14:29.039Z,950.49
2023-04-15T05:15:29.016Z,950.55
2023-04-15T05:16:28.979Z,950.56
2023-04-15T05:17:28.982Z,950.55
2023-04-15T05:18:28.920Z,950.56
2023-04-15T05:19:28.889Z,950.57
2023-04-15T05:20:28.859Z,950.60
2023-04-15T05:21:28.825Z,950.59
2023-04-15T05:22:28.801Z,950.60
2023-04-15T05:23:28.769Z,950.62
2023-04-15T05:24:28.742Z,950.62
2023-04-15T05:25:28.731Z,950.66
2023-04-15T05:26:28.680Z,950.65
2023-04-15T05:27:28.650Z,950.60
2023-04-15T05:28:28.621Z,950.65
2023-04-15T05:29:28.586Z,950.67
2023-04-15T05:30:28.562Z,950.64
2023-04-15T05:31:28.549Z,950.65
2023-04-15T05:32:28.532Z,950.65
2023-04-15T05:33:28.469Z,950.64
2023-04-15T05:34:28.449Z,950.65
2023-04-15T05:35:28.415Z,950.62
2023-04-15T05:36:28.382Z,950.64
2023-04-15T05:37:28.352Z,950.64
2023-04-15T05:38:28.325Z,950.61
2023-04-15T05:39:28.299Z,950.63
2023-04-15T05:40:28.280Z,950.63
2023-04-15T05:41:28.254Z,950.64
2023-04-15T05:42:28.204Z,950.61
2023-04-15T05:43:28.172Z,950.61
2023-04-15T05:44:28.153Z,950.64
2023-04-15T05:45:28.114Z,950.62
2023-04-15T05:46:28.123Z,950.62
2023-04-15T05:47:28.090Z,950.62
2023-04-15T05:48:28.026Z,950.63
2023-04-15T05:49:27.991Z,950.61
2023-04-15T05:50:27.971Z,950.62
2023-04-15T05:51:27.938Z,950.64
2023-04-15T05:52:27.912Z,950.60
2023-04-15T05:53:27.876Z,950.65
2023-04-15T05:54:27.867Z,950.63
2023-04-15T05:55:27.818Z,950.65
2023-04-15T05:56:27.798Z,950.71
2023-04-15T05:57:27.785Z,950.70
2023-04-15T05:58:27.734Z,950.72
2023-04-15T05:59:27.700Z,950.69
2023-04-15T06:00:27.671Z,950.71
2023-04-15T06:01:27.644Z,950.71
2023-04-15T06:02:27.650Z,950.71
2023-04-15T06:03:27.685Z,950.74
2023-04-15T06:04:27.701Z,950.74
2023-04-15T06:05:27.525Z,950.73
2023-04-15T06:06:27.506Z,950.68
2023-04-15T06:07:27.467Z,950.71
2023-04-15T06:08:27.435Z,950.73
2023-04-15T06:09:27.408Z,950.70
2023-04-15T06:10:27.379Z,950.76
2023-04-15T06:11:27.350Z,950.76
2023-04-15T06:12:27.323Z,950.77
2023-04-15T06:13:27.311Z,950.75
2023-04-15T06:14:27.260Z,950.75
2023-04-15T06:15:27.238Z,950.76
2023-04-15T06:16:27.230Z,950.76
2023-04-15T06:17:27.201Z,950.75
2023-04-15T06:18:27.145Z,950.73
2023-04-15T06:19:27.114Z,950.74
2023-04-15T06:20:27.094Z,950.75
2023-04-15T06:21:27.061Z,950.74
2023-04-15T06:22:27.028Z,950.73
2023-04-15T06:23:28.078Z,950.76
2023-04-15T06:24:26.970Z,950.74
2023-04-15T06:25:26.945Z,950.71
2023-04-15T06:26:26.923Z,950.76
2023-04-15T06:27:26.903Z,950.73
2023-04-15T06:28:26.859Z,950.71
2023-04-15T06:29:26.847Z,950.71
2023-04-15T06:30:26.797Z,950.73
2023-04-15T06:31:26.843Z,950.75
2023-04-15T06:32:26.756Z,950.76
2023-04-15T06:33:26.732Z,950.72
2023-04-15T06:34:26.678Z,950.73
2023-04-15T06:35:26.660Z,950.72
2023-04-15T06:36:26.633Z,950.70
2023-04-15T06:37:26.597Z,950.73
2023-04-15T06:38:26.587Z,950.73
2023-04-15T06:39:26.545Z,950.73
2023-04-15T06:40:26.508Z,950.80
2023-04-15T06:41:26.486Z,950.74
2023-04-15T06:42:26.453Z,950.78
2023-04-15T06:43:26.429Z,950.73
2023-04-15T06:44:26.394Z,950.77
2023-04-15T06:45:26.448Z,950.78
2023-04-15T06:46:26.685Z,950.78
2023-04-15T06:47:26.321Z,950.78
2023-04-15T06:48:26.280Z,950.79
2023-04-15T06:49:26.254Z,950.81
2023-04-15T06:50:26.267Z,950.79
2023-04-15T06:51:26.826Z,950.82
2023-04-15T06:52:26.166Z,950.85
2023-04-15T06:53:26.141Z,950.80
2023-04-15T06:54:26.115Z,950.86
2023-04-15T06:55:26.082Z,950.84
2023-04-15T06:56:26.069Z,950.89
2023-04-15T06:57:26.027Z,950.85
2023-04-15T06:58:25.999Z,950.85
2023-04-15T06:59:25.971Z,950.83
2023-04-15T07:00:25.975Z,950.84
2023-04-15T07:01:25.975Z,950.82
2023-04-15T07:02:25.986Z,950.81
2023-04-15T07:03:25.870Z,950.80
2023-04-15T07:04:25.886Z,950.81
2023-04-15T07:05:25.804Z,950.82
2023-04-15T07:06:25.774Z,950.84
2023-04-15T07:07:25.744Z,950.88
2023-04-15T07:08:25.718Z,950.86
2023-04-15T07:09:25.688Z,950.88
2023-04-15T07:10:25.798Z,950.87
2023-04-15T07:11:25.648Z,950.88
2023-04-15T07:12:25.606Z,950.88
2023-04-15T07:13:25.580Z,950.86
2023-04-15T07:14:25.551Z,950.84
2023-04-15T07:15:25.538Z,950.83
2023-04-15T07:16:27.084Z,950.86
2023-04-15T07:17:25.547Z,950.81
2023-04-15T07:18:25.438Z,950.83
2023-04-15T07:19:25.412Z,950.82
2023-04-15T07:20:25.382Z,950.79
2023-04-15T07:21:25.357Z,950.79
2023-04-15T07:22:25.330Z,950.77
2023-04-15T07:23:25.299Z,950.79
2023-04-15T07:24:25.267Z,950.78
2023-04-15T07:25:25.251Z,950.77
2023-04-15T07:26:25.215Z,950.77
2023-04-15T07:27:25.190Z,950.73
2023-04-15T07:28:25.159Z,950.75
2023-04-15T07:29:25.145Z,950.68
2023-04-15T07:30:25.133Z,950.73
2023-04-15T07:31:25.114Z,950.72
2023-04-15T07:32:25.092Z,950.69
2023-04-15T07:33:25.043Z,950.71
2023-04-15T07:34:24.992Z,950.68
2023-04-15T07:35:24.968Z,950.70
2023-04-15T07:36:24.940Z,950.69
2023-04-15T07:37:24.911Z,950.69
2023-04-15T07:38:24.886Z,950.72
2023-04-15T07:39:24.854Z,950.70
2023-04-15T07:40:24.862Z,950.66
2023-04-15T07:41:24.825Z,950.70
2023-04-15T07:42:24.773Z,950.69
2023-04-15T07:43:24.748Z,950.63
2023-04-15T07:44:24.718Z,950.71
2023-04-15T07:45:24.690Z,950.69
2023-04-15T07:46:24.722Z,950.70
2023-04-15T07:47:24.642Z,950.69
2023-04-15T07:48:24.612Z,950.72
2023-04-15T07:49:24.602Z,950.71
2023-04-15T07:50:24.556Z,950.69
2023-04-15T07:51:24.530Z,950.67
2023-04-15T07:52:24.497Z,950.69
2023-04-15T07:53:24.469Z,950.66
2023-04-15T07:54:24.439Z,950.69
2023-04-15T07:55:25.370Z,950.69
2023-04-15T07:56:24.386Z,950.68
2023-04-15T07:57:24.358Z,950.68
2023-04-15T07:58:24.330Z,950.66
2023-04-15T07:59:24.308Z,950.68
2023-04-15T08:00:24.274Z,950.66
2023-04-15T08:01:24.248Z,950.67
2023-04-15T08:02:24.294Z,950.67
2023-04-15T08:03:24.312Z,950.67
2023-04-15T08:04:24.261Z,950.67
2023-04-15T08:05:24.220Z,950.66
2023-04-15T08:06:24.106Z,950.67
2023-04-15T08:07:24.084Z,950.68
2023-04-15T08:08:24.050Z,950.69
2023-04-15T08:09:24.021Z,950.67
2023-04-15T08:10:23.998Z,950.69
2023-04-15T08:11:23.967Z,950.69
2023-04-15T08:12:23.936Z,950.71
2023-04-15T08:13:23.915Z,950.72
2023-04-15T08:14:23.881Z,950.77
2023-04-15T08:15:23.859Z,950.73
2023-04-15T08:16:23.928Z,950.79
2023-04-15T08:17:23.820Z,950.74
2023-04-15T08:18:23.768Z,950.75
2023-04-15T08:19:23.741Z,950.79
2023-04-15T08:20:23.719Z,950.76
2023-04-15T08:21:23.707Z,950.76
2023-04-15T08:22:23.655Z,950.81
2023-04-15T08:23:23.631Z,950.78
2023-04-15T08:24:23.597Z,950.78
2023-04-15T08:25:23.583Z,950.78
2023-04-15T08:26:23.544Z,950.78
2023-04-15T08:27:23.540Z,950.82
2023-04-15T08:28:23.492Z,950.80
2023-04-15T08:29:23.461Z,950.78
2023-04-15T08:30:23.434Z,950.77
2023-04-15T08:31:23.466Z,950.74
2023-04-15T08:32:23.413Z,950.76
2023-04-15T08:33:23.351Z,950.74
2023-04-15T08:34:23.322Z,950.74
2023-04-15T08:35:23.307Z,950.74
2023-04-15T08:36:23.268Z,950.74
2023-04-15T08:37:23.256Z,950.74
2023-04-15T08:38:23.241Z,950.74
2023-04-15T08:39:23.188Z,950.74
2023-04-15T08:40:23.158Z,950.72
2023-04-15T08:41:23.134Z,950.78
2023-04-15T08:42:23.105Z,950.76
2023-04-15T08:43:23.081Z,950.79
2023-04-15T08:44:23.048Z,950.75
2023-04-15T08:45:23.022Z,950.77
2023-04-15T08:46:23.021Z,950.81
2023-04-15T08:47:23.065Z,950.78
2023-04-15T08:48:22.939Z,950.81
2023-04-15T08:49:22.922Z,950.83
2023-04-15T08:50:22.889Z,950.80
2023-04-15T08:51:24.539Z,950.81
2023-04-15T08:52:22.836Z,950.76
2023-04-15T08:53:22.826Z,950.79
2023-04-15T08:54:22.778Z,950.78
2023-04-15T08:55:22.763Z,950.83
2023-04-15T08:56:22.790Z,950.80
2023-04-15T08:57:22.697Z,950.82
2023-04-15T08:58:22.673Z,950.85
2023-04-15T08:59:22.690Z,950.80
2023-04-15T09:00:22.614Z,950.82
2023-04-15T09:01:22.630Z,950.84
2023-04-15T09:02:22.644Z,950.83
2023-04-15T09:03:22.587Z,950.83
2023-04-15T09:04:22.511Z,950.84
2023-04-15T09:05:22.497Z,950.89
2023-04-15T09:06:22.452Z,950.88
2023-04-15T09:07:22.437Z,950.90
2023-04-15T09:08:22.409Z,950.92
2023-04-15T09:09:22.443Z,950.94
2023-04-15T09:10:22.346Z,950.89
2023-04-15T09:11:22.318Z,950.91
2023-04-15T09:12:22.304Z,950.92
2023-04-15T09:13:22.263Z,950.89
2023-04-15T09:14:22.235Z,950.94
2023-04-15T09:15:22.214Z,950.94
2023-04-15T09:16:22.214Z,950.94
2023-04-15T09:17:22.243Z,950.97
2023-04-15T09:18:22.137Z,950.95
2023-04-15T09:19:22.103Z,950.99
2023-04-15T09:20:22.077Z,950.97
2023-04-15T09:21:22.048Z,950.99
2023-04-15T09:22:22.021Z,951.01
2023-04-15T09:23:21.999Z,951.04
2023-04-15T09:24:21.966Z,951.08
2023-04-15T09:25:21.968Z,951.07
2023-04-15T09:26:21.914Z,951.10
2023-04-15T09:27:21.890Z,951.09
2023-04-15T09:28:21.859Z,951.08
2023-04-15T09:29:21.840Z,951.11
2023-04-15T09:30:21.807Z,951.09
2023-04-15T09:31:21.861Z,951.10
2023-04-15T09:32:21.785Z,951.12
2023-04-15T09:33:21.731Z,951.13
2023-04-15T09:34:21.696Z,951.14
2023-04-15T09:35:21.675Z,951.13
2023-04-15T09:36:21.660Z,951.12
2023-04-15T09:37:31.961Z,951.17
2023-04-15T09:38:21.592Z,951.15
2023-04-15T09:39:21.584Z,951.13
2023-04-15T09:40:21.540Z,951.15
2023-04-15T09:41:21.534Z,951.15
2023-04-15T09:42:21.490Z,951.14
2023-04-15T09:43:21.485Z,951.17
2023-04-15T09:44:21.441Z,951.14
2023-04-15T09:45:21.410Z,951.16
2023-04-15T09:46:21.454Z,951.17
2023-04-15T09:47:21.403Z,951.18
2023-04-15T09:48:21.339Z,951.18
2023-04-15T09:49:21.353Z,951.17
2023-04-15T09:50:21.279Z,951.17
2023-04-15T09:51:21.253Z,951.22
2023-04-15T09:52:21.227Z,951.24
2023-04-15T09:53:21.204Z,951.23
2023-04-15T09:54:21.174Z,951.27
2023-04-15T09:55:21.162Z,951.28
2023-04-15T09:56:21.121Z,951.27
2023-04-15T09:57:21.118Z,951.25
2023-04-15T09:58:21.074Z,951.28
2023-04-15T09:59:21.891Z,951.30
2023-04-15T10:00:21.020Z,951.20
2023-04-15T10:01:21.027Z,951.27
2023-04-15T10:02:21.185Z,951.26
2023-04-15T10:03:21.181Z,951.30
2023-04-15T10:04:21.019Z,951.34
2023-04-15T10:05:20.891Z,951.29
2023-04-15T10:06:20.868Z,951.34
2023-04-15T10:07:20.872Z,951.34
2023-04-15T10:08:20.820Z,951.36
2023-04-15T10:09:20.787Z,951.38
2023-04-15T10:10:20.758Z,951.36
2023-04-15T10:11:20.737Z,951.33
2023-04-15T10:12:20.719Z,951.37
2023-04-15T10:13:20.706Z,951.38
2023-04-15T10:14:20.656Z,951.38
2023-04-15T10:15:20.633Z,951.38
2023-04-15T10:16:20.780Z,951.35
2023-04-15T10:17:20.656Z,951.35
2023-04-15T10:18:20.557Z,951.37
2023-04-15T10:19:20.528Z,951.36
2023-04-15T10:20:20.500Z,951.37
2023-04-15T10:21:20.477Z,951.39
2023-04-15T10:22:20.457Z,951.43
2023-04-15T10:23:20.426Z,951.41
2023-04-15T10:24:20.400Z,951.38
2023-04-15T10:25:20.380Z,951.38
2023-04-15T10:26:20.350Z,951.39
2023-04-15T10:27:20.324Z,951.41
2023-04-15T10:28:20.301Z,951.40
2023-04-15T10:29:20.299Z,951.39
2023-04-15T10:30:20.244Z,951.43
2023-04-15T10:31:20.269Z,951.46
2023-04-15T10:32:20.228Z,951.42
2023-04-15T10:33:20.162Z,951.44
2023-04-15T10:34:20.135Z,951.45
2023-04-15T10:35:20.112Z,951.47
2023-04-15T10:36:20.086Z,951.48
2023-04-15T10:37:20.067Z,951.48
2023-04-15T10:38:20.038Z,951.53
2023-04-15T10:39:20.009Z,951.53
2023-04-15T10:40:19.983Z,951.56
2023-04-15T10:41:20.813Z,951.57
2023-04-15T10:42:19.932Z,951.54
2023-04-15T10:43:19.915Z,951.55
2023-04-15T10:44:19.879Z,951.54
2023-04-15T10:45:19.880Z,951.56
2023-04-15T10:46:19.881Z,951.56
2023-04-15T10:47:19.798Z,951.60
2023-04-15T10:48:19.777Z,951.60
2023-04-15T10:49:19.750Z,951.61
2023-04-15T10:50:19.727Z,951.61
2023-04-15T10:51:19.700Z,951.61
2023-04-15T10:52:19.674Z,951.61
2023-04-15T10:53:21.774Z,951.62
2023-04-15T10:54:19.623Z,951.62
2023-04-15T10:55:19.596Z,951.60
2023-04-15T10:56:19.570Z,951.63
2023-04-15T10:57:19.543Z,951.60
2023-04-15T10:58:19.518Z,951.60
2023-04-15T10:59:21.339Z,951.60
2023-04-15T11:00:19.470Z,951.65
2023-04-15T11:01:19.482Z,951.64
2023-04-15T11:02:19.574Z,951.65
2023-04-15T11:03:19.480Z,951.65
2023-04-15T11:04:19.420Z,951.70
2023-04-15T11:05:19.335Z,951.75
2023-04-15T11:06:19.321Z,951.77
2023-04-15T11:07:19.282Z,951.76
2023-04-15T11:08:19.276Z,951.77
2023-04-15T11:09:19.240Z,951.77
2023-04-15T11:10:19.207Z,951.79
2023-04-15T11:11:19.181Z,951.83
2023-04-15T11:12:19.157Z,951.85
2023-04-15T11:13:19.124Z,951.82
2023-04-15T11:14:19.102Z,951.83
2023-04-15T11:15:19.095Z,951.85
2023-04-15T11:16:19.093Z,951.84
2023-04-15T11:17:19.043Z,951.89
2023-04-15T11:18:19.009Z,951.88
2023-04-15T11:19:18.981Z,951.96
2023-04-15T11:20:18.948Z,951.92
2023-04-15T11:21:18.922Z,951.91
2023-04-15T11:22:18.896Z,951.95
2023-04-15T11:23:18.877Z,951.91
2023-04-15T11:24:18.845Z,951.96
2023-04-15T11:25:18.815Z,951.97
2023-04-15T11:26:18.794Z,951.97
2023-04-15T11:27:18.764Z,952.03
2023-04-15T11:28:18.735Z,952.01
2023-04-15T11:29:18.710Z,951.98
2023-04-15T11:30:18.720Z,952.02
2023-04-15T11:31:18.729Z,952.05
2023-04-15T11:32:18.739Z,952.09
2023-04-15T11:33:18.625Z,952.12
2023-04-15T11:34:18.587Z,952.08
2023-04-15T11:35:18.551Z,952.18
2023-04-15T11:36:18.528Z,952.16
2023-04-15T11:37:18.497Z,952.15
2023-04-15T11:38:18.473Z,952.18
2023-04-15T11:39:18.448Z,952.18
2023-04-15T11:40:18.438Z,952.17
2023-04-15T11:41:18.388Z,952.20
2023-04-15T11:42:18.369Z,952.21
2023-04-15T11:43:18.341Z,952.25
2023-04-15T11:44:18.319Z,952.23
2023-04-15T11:45:18.284Z,952.29
2023-04-15T11:46:18.464Z,952.28
2023-04-15T11:47:18.245Z,952.28
2023-04-15T11:48:18.204Z,952.26
2023-04-15T11:49:18.197Z,952.27
2023-04-15T11:50:18.161Z,952.30
2023-04-15T11:51:18.130Z,952.31
2023-04-15T11:52:18.098Z,952.38
2023-04-15T11:53:18.073Z,952.35
2023-04-15T11:54:18.048Z,952.37
2023-04-15T11:55:18.018Z,952.37
2023-04-15T11:56:17.988Z,952.39
2023-04-15T11:57:17.964Z,952.43
2023-04-15T11:58:17.939Z,952.43
2023-04-15T11:59:17.909Z,952.44
2023-04-15T12:00:17.887Z,952.46
2023-04-15T12:01:17.865Z,952.52
2023-04-15T12:02:17.934Z,952.51
2023-04-15T12:03:18.083Z,952.58
2023-04-15T12:04:18.037Z,952.54
2023-04-15T12:05:17.883Z,952.58
2023-04-15T12:06:17.791Z,952.61
2023-04-15T12:07:17.701Z,952.65
2023-04-15T12:08:17.673Z,952.62
2023-04-15T12:09:17.662Z,952.63
2023-04-15T12:10:17.624Z,952.66
2023-04-15T12:11:17.586Z,952.68
2023-04-15T12:12:17.562Z,952.65
2023-04-15T12:13:17.536Z,952.70
2023-04-15T12:14:17.511Z,952.66
2023-04-15T12:15:17.488Z,952.68
2023-04-15T12:16:17.571Z,952.68
2023-04-15T12:17:17.578Z,952.70
2023-04-15T12:18:17.470Z,952.66
2023-04-15T12:19:17.381Z,952.73
2023-04-15T12:20:17.368Z,952.73
2023-04-15T12:21:17.347Z,952.78
2023-04-15T12:22:17.334Z,952.72
2023-04-15T12:23:17.277Z,952.77
2023-04-15T12:24:17.248Z,952.73
2023-04-15T12:25:17.223Z,952.74
2023-04-15T12:26:17.214Z,952.75
2023-04-15T12:27:17.200Z,952.78
2023-04-15T12:28:17.165Z,952.80